LDZALQTZ

Guest
Details From LDZA - Zagreb
To LQTZ - TUZLA
Flight Number -
Tags generated
Created
Modified
Stats Distance 137 nm / 253 km
Max Altitude 17,200 ft / 5,243 m
Waypoints 3
Social Downloads 0
Likes 0
Share VATSIM

Download

Looking for another format? Having issues loading an existing format? Contact us
Advertisement - Login to hide

Notes

Basic altitude profile: - Ascent Rate: 2500ft/min - Ascent Speed: 250kts - Cruise Altitude: 35000ft - Cruise Speed: 420kts - Descent Rate: 1500ft/min - Descent Speed: 250kts Options: - Use NATs: yes - Use PACOTS: yes - Use low airways: yes - Use high airways: yes

Route

LDZA NOVLO LQTZ

ID Type Via Altitude Latitude Longitude Leg Dist Tot Dist Heading (true) Name
O LDZA APT - 0 ft / 0 m 45.74189˚ 16.06720˚ - 0 nm - Zagreb
NOVLO FIX - 17,200 ft / 5,243 m 45.22944˚ 16.95306˚ 48 nm 48 nm 129° / 130° -
O LQTZ APT - 0 ft / 0 m 44.45867˚ 18.72483˚ 88 nm 136 nm 121° / 122° TUZLA

Altitude Profile

Advertisement - Login to hide

LDZA

Details ICAO LDZA (ZAG)
Name Zagreb
Region Croatia
Timezone Europe/Zagreb (UTC+1.0)
Stats Elevation 353 ft / 108 m (AMSL)
Location 45.741890° 16.067200°
Runways 1
Magnetic Variation 3.959° E

METAR

LDZA 140600Z 00000KT 9999 FEW030 01/00 Q1006 BECMG 23010KT

Decode

TAF

TAF LDZA 140525Z 1406/1506 23010KT 9999 SCT025 TX12/1413Z TN01/1406Z PROB30 TEMPO 1500/1506 23015G25KT

Decode

Departure Runways

ID Width Length Bearing (true) Bearing (mag) Surface Threshold Offset Overrun Length
05 148 ft / 45 m 10,659 ft / 3,249 m 46.69° 42.73° Asphalt 0 ft / 0 m 195 ft / 59 m
23 148 ft / 45 m 10,659 ft / 3,249 m 226.71° 222.75° Asphalt 0 ft / 0 m 195 ft / 59 m

LQTZ

Details ICAO LQTZ
Name TUZLA
Region Bosnia and Herzegovinia
Timezone Europe/Sarajevo (UTC+1.0)
Stats Elevation 784 ft / 239 m (AMSL)
Location 44.458666° 18.724833°
Runways 1
Magnetic Variation 4.351° E

METAR

LQTZ 140600Z VRB01KT 0800 R09/0750N FZFG SCT002 M01/M01 Q1010

Decode

TAF

Not found

Destination Runways

ID Width Length Bearing (true) Bearing (mag) Surface Threshold Offset Overrun Length
09 148 ft / 45 m 8,119 ft / 2,475 m 96.01° 91.66° Asphalt 0 ft / 0 m 99 ft / 30 m
27 148 ft / 45 m 8,119 ft / 2,475 m 276.03° 271.68° Asphalt 0 ft / 0 m 110 ft / 34 m

Approach Navaids

Runway Type Ident Frequency Range Bearing (true) Bearing (mag) Slope Elevation
09 Localiser TLA 110.10 MHz 25 nm / 46 km 96.00° 91.65° - 788 ft / 240 m (AMSL)
09 Glidescope TLA 110.10 MHz 25 nm / 46 km 96.00° 91.65° 3.00° 251 ft / 77 m (AMSL)
09 DME TLA 110.10 MHz 25 nm / 46 km - - - 251 ft / 77 m (AMSL)

Popular Alternatives